createdAt,value
2022-12-29T00:00:38.604Z,95493.03
2022-12-29T00:02:42.083Z,95489.38
2022-12-29T00:04:46.755Z,95487.75
2022-12-29T00:06:50.180Z,95489.94
2022-12-29T00:08:53.592Z,95480.53
2022-12-29T00:10:56.788Z,95479.25
2022-12-29T00:13:17.482Z,95480.53
2022-12-29T00:15:38.161Z,95462.94
2022-12-29T00:17:41.398Z,95469.13
2022-12-29T00:20:03.302Z,95463.03
2022-12-29T00:22:24.519Z,95460.53
2022-12-29T00:24:45.163Z,95418.06
2022-12-29T00:27:07.646Z,95437.75
2022-12-29T00:29:28.554Z,95455.09
2022-12-29T00:31:49.357Z,95456.16
2022-12-29T00:34:06.629Z,95452.66
2022-12-29T00:36:18.591Z,95401.03
2022-12-29T00:38:40.797Z,95458.31
2022-12-29T00:41:01.536Z,95450.19
2022-12-29T00:43:22.854Z,95456.53
2022-12-29T00:45:26.122Z,95453.47
2022-12-29T00:47:29.294Z,95450.06
2022-12-29T00:49:32.212Z,95451.69
2022-12-29T00:51:36.858Z,95457.03
2022-12-29T00:53:40.022Z,95378.28
2022-12-29T00:55:43.266Z,95450.06
2022-12-29T00:57:46.475Z,95452.50
2022-12-29T00:59:49.804Z,95412.38
2022-12-29T01:01:55.152Z,95449.09
2022-12-29T01:04:02.216Z,95453.47
2022-12-29T01:06:10.413Z,95453.00
2022-12-29T01:08:15.690Z,95439.88
2022-12-29T01:10:17.907Z,95387.63
2022-12-29T01:12:41.468Z,95453.00
2022-12-29T01:14:46.798Z,95451.78
2022-12-29T01:16:50.645Z,95395.47
2022-12-29T01:18:54.118Z,95448.94
2022-12-29T01:21:02.221Z,95456.97
2022-12-29T01:23:05.422Z,95446.34
2022-12-29T01:25:10.711Z,95442.13
2022-12-29T01:27:15.217Z,95456.00
2022-12-29T01:29:18.971Z,95407.63
2022-12-29T01:31:25.138Z,95433.53
2022-12-29T01:33:30.307Z,95410.38
2022-12-29T01:35:34.026Z,95458.25
2022-12-29T01:37:37.256Z,95432.22
2022-12-29T01:39:40.453Z,95453.56
2022-12-29T01:41:45.006Z,95460.06
2022-12-29T01:43:51.346Z,95418.59
2022-12-29T01:45:56.912Z,95459.84
2022-12-29T01:48:04.108Z,95461.78
2022-12-29T01:50:13.833Z,95423.22
2022-12-29T01:52:17.643Z,95434.81
2022-12-29T01:54:27.858Z,95392.97
2022-12-29T01:56:31.662Z,95480.41
2022-12-29T01:58:44.212Z,95433.50
2022-12-29T02:00:47.660Z,95430.19
2022-12-29T02:02:55.048Z,95353.75
2022-12-29T02:05:04.596Z,95448.41
2022-12-29T02:07:17.858Z,95440.13
2022-12-29T02:09:22.558Z,95440.50
2022-12-29T02:11:30.784Z,95379.25
2022-12-29T02:13:34.369Z,95397.84
2022-12-29T02:15:58.446Z,95433.53
2022-12-29T02:18:21.133Z,95421.75
2022-12-29T02:21:17.600Z,95432.28
2022-12-29T02:23:55.371Z,95432.06
2022-12-29T02:26:25.897Z,95420.22
2022-12-29T02:29:02.776Z,95428.09
2022-12-29T02:31:17.466Z,95361.06
2022-12-29T02:33:33.158Z,95425.72
2022-12-29T02:35:46.300Z,95376.47
2022-12-29T02:38:00.454Z,95399.63
2022-12-29T02:40:17.281Z,95352.81
2022-12-29T02:42:35.125Z,95318.59
2022-12-29T02:44:52.257Z,95374.19
2022-12-29T02:47:02.473Z,95409.75
2022-12-29T02:49:15.055Z,95386.78
2022-12-29T02:51:26.545Z,95409.25
2022-12-29T02:53:49.285Z,95195.84
2022-12-29T02:55:53.941Z,95391.72
2022-12-29T02:58:21.657Z,95365.66
2022-12-29T03:00:26.293Z,95415.75
2022-12-29T03:03:08.271Z,95414.19
2022-12-29T03:05:32.628Z,95304.38
2022-12-29T03:07:49.471Z,95395.94
2022-12-29T03:10:00.603Z,95400.22
2022-12-29T03:12:16.960Z,95359.25
2022-12-29T03:14:48.873Z,95392.63
2022-12-29T03:16:58.349Z,95368.47
2022-12-29T03:19:09.283Z,95368.75
2022-12-29T03:21:19.656Z,95364.16
2022-12-29T03:23:24.763Z,95346.41
2022-12-29T03:25:34.327Z,95224.22
2022-12-29T03:27:44.461Z,95364.72
2022-12-29T03:29:55.228Z,95364.53
2022-12-29T03:32:01.397Z,95366.91
2022-12-29T03:34:09.079Z,95365.84
2022-12-29T03:36:25.504Z,95350.25
2022-12-29T03:38:37.722Z,95338.38
2022-12-29T03:40:44.676Z,95331.94
2022-12-29T03:42:48.963Z,95345.44
2022-12-29T03:44:57.681Z,95304.53
2022-12-29T03:47:01.414Z,95351.34
2022-12-29T03:49:06.026Z,95336.03
2022-12-29T03:51:10.362Z,95353.47
2022-12-29T03:53:13.572Z,95348.63
2022-12-29T03:55:17.122Z,95362.00
2022-12-29T03:57:22.072Z,95271.31
2022-12-29T03:59:33.088Z,95367.38
2022-12-29T04:01:37.654Z,95355.56
2022-12-29T04:03:40.974Z,95355.56
2022-12-29T04:05:45.927Z,95361.75
2022-12-29T04:07:49.345Z,95358.78
2022-12-29T04:09:52.848Z,95380.78
2022-12-29T04:11:59.871Z,95367.09
2022-12-29T04:14:04.422Z,95337.50
2022-12-29T04:16:10.272Z,95368.41
2022-12-29T04:18:13.679Z,95295.47
2022-12-29T04:20:34.815Z,95370.53
2022-12-29T04:22:40.954Z,95371.91
2022-12-29T04:24:44.506Z,95382.63
2022-12-29T04:26:48.983Z,95389.06
2022-12-29T04:29:08.273Z,95372.38
2022-12-29T04:31:25.633Z,95387.16
2022-12-29T04:33:29.004Z,95391.19
2022-12-29T04:35:32.207Z,95354.69
2022-12-29T04:37:35.520Z,95369.47
2022-12-29T04:39:40.061Z,95348.84
2022-12-29T04:41:44.519Z,95354.75
2022-12-29T04:43:53.020Z,95358.22
2022-12-29T04:46:14.615Z,95388.44
2022-12-29T04:48:32.588Z,95356.63
2022-12-29T04:50:56.068Z,95377.81
2022-12-29T04:53:02.055Z,95328.03
2022-12-29T04:55:08.407Z,95362.03
2022-12-29T04:57:13.496Z,95358.28
2022-12-29T04:59:23.983Z,95357.97
2022-12-29T05:01:30.975Z,95335.13
2022-12-29T05:03:35.008Z,95345.09
2022-12-29T05:05:38.284Z,95366.88
2022-12-29T05:07:41.524Z,95361.00
2022-12-29T05:09:45.316Z,95352.91
2022-12-29T05:11:49.848Z,95361.50
2022-12-29T05:13:53.119Z,95335.69
2022-12-29T05:15:56.467Z,95378.97
2022-12-29T05:18:01.105Z,95361.75
2022-12-29T05:20:07.902Z,95372.19
2022-12-29T05:22:12.588Z,95390.75
2022-12-29T05:24:16.348Z,95373.31
2022-12-29T05:26:19.948Z,95378.69
2022-12-29T05:28:38.776Z,95388.91
2022-12-29T05:30:51.470Z,95380.88
2022-12-29T05:32:55.661Z,95378.19
2022-12-29T05:34:59.722Z,95386.31
2022-12-29T05:37:03.524Z,95381.81
2022-12-29T05:39:08.519Z,95384.78
2022-12-29T05:41:13.178Z,95310.91
2022-12-29T05:43:38.049Z,95390.66
2022-12-29T05:45:59.263Z,95363.22
2022-12-29T05:48:12.922Z,95381.56
2022-12-29T05:50:49.954Z,95397.22
2022-12-29T05:52:55.488Z,95383.78
2022-12-29T05:54:59.063Z,95405.53
2022-12-29T05:57:04.188Z,95379.47
2022-12-29T05:59:09.720Z,95304.06
2022-12-29T06:01:13.340Z,95381.13
2022-12-29T06:03:16.716Z,95378.16
2022-12-29T06:05:20.226Z,95303.31
2022-12-29T06:07:23.904Z,95273.22
2022-12-29T06:09:27.092Z,95361.78
2022-12-29T06:11:31.641Z,95361.22
2022-12-29T06:13:36.489Z,95366.63
2022-12-29T06:15:41.450Z,95337.03
2022-12-29T06:17:45.572Z,95331.66
2022-12-29T06:19:48.904Z,95373.88
2022-12-29T06:21:53.500Z,95375.22
2022-12-29T06:23:57.272Z,95362.88
2022-12-29T06:26:00.433Z,95370.63
2022-12-29T06:28:04.546Z,95357.38
2022-12-29T06:30:09.916Z,95353.03
2022-12-29T06:32:16.086Z,95377.78
2022-12-29T06:34:24.373Z,95377.16
2022-12-29T06:36:28.020Z,95322.69
2022-12-29T06:38:31.225Z,95360.16
2022-12-29T06:40:35.872Z,95388.13
2022-12-29T06:42:52.678Z,95389.78
2022-12-29T06:45:11.453Z,95376.59
2022-12-29T06:47:16.047Z,95376.31
2022-12-29T06:49:19.245Z,95352.63
2022-12-29T06:51:22.534Z,95378.72
2022-12-29T06:53:25.848Z,95374.19
2022-12-29T06:55:29.243Z,95366.09
2022-12-29T06:57:32.442Z,95368.00
2022-12-29T06:59:35.624Z,95321.72
2022-12-29T07:01:39.189Z,95359.41
2022-12-29T07:03:44.998Z,95347.84
2022-12-29T07:05:48.187Z,95354.59
2022-12-29T07:07:51.353Z,95369.09
2022-12-29T07:09:54.513Z,95362.31
2022-12-29T07:11:58.262Z,95363.41
2022-12-29T07:14:04.458Z,95367.91
2022-12-29T07:16:08.818Z,95371.44
2022-12-29T07:18:11.971Z,95335.03
2022-12-29T07:20:20.606Z,95378.91
2022-12-29T07:22:26.751Z,95368.97
2022-12-29T07:24:30.788Z,95386.94
2022-12-29T07:26:36.438Z,95387.78
2022-12-29T07:28:40.075Z,95383.47
2022-12-29T07:30:43.361Z,95381.31
2022-12-29T07:32:46.597Z,95394.75
2022-12-29T07:34:49.842Z,95386.97
2022-12-29T07:36:54.474Z,95264.47
2022-12-29T07:38:57.954Z,95386.66
2022-12-29T07:41:01.513Z,95365.41
2022-12-29T07:43:05.079Z,95400.41
2022-12-29T07:45:17.614Z,95401.25
2022-12-29T07:47:39.418Z,95394.25
2022-12-29T07:49:42.659Z,95376.59
2022-12-29T07:51:45.867Z,95378.47
2022-12-29T07:53:50.350Z,95377.88
2022-12-29T07:55:53.508Z,95380.84
2022-12-29T07:57:57.695Z,95318.88
2022-12-29T08:00:01.085Z,95390.75
2022-12-29T08:02:04.770Z,95312.44
2022-12-29T08:04:08.297Z,95393.25
2022-12-29T08:06:12.379Z,95398.34
2022-12-29T08:08:15.661Z,95380.84
2022-12-29T08:10:20.412Z,95394.31
2022-12-29T08:12:23.612Z,95352.28
2022-12-29T08:14:27.109Z,95336.66
2022-12-29T08:16:30.416Z,95405.25
2022-12-29T08:18:33.737Z,95406.13
2022-12-29T08:20:36.902Z,95349.09
2022-12-29T08:22:40.152Z,95397.50
2022-12-29T08:24:43.357Z,95403.94
2022-12-29T08:26:48.094Z,95411.50
2022-12-29T08:28:51.374Z,95403.72
2022-12-29T08:30:54.937Z,95394.34
2022-12-29T08:32:58.109Z,95389.31
2022-12-29T08:35:01.480Z,95396.38
2022-12-29T08:37:04.917Z,95389.19
2022-12-29T08:39:08.147Z,95363.94
2022-12-29T08:41:11.319Z,95359.63
2022-12-29T08:43:18.674Z,95365.25
2022-12-29T08:45:22.243Z,95389.81
2022-12-29T08:47:25.463Z,95393.84
2022-12-29T08:49:28.653Z,95414.28
2022-12-29T08:51:31.835Z,95402.19
2022-12-29T08:53:35.560Z,95391.44
2022-12-29T08:55:38.853Z,95393.03
2022-12-29T08:57:42.798Z,95401.09
2022-12-29T09:00:13.267Z,95392.50
2022-12-29T09:02:22.116Z,95402.47
2022-12-29T09:04:28.419Z,95411.34
2022-12-29T09:06:33.808Z,95420.47
2022-12-29T09:08:40.957Z,95401.38
2022-12-29T09:10:43.741Z,95404.34
2022-12-29T09:12:46.471Z,95410.53
2022-12-29T09:14:49.401Z,95415.13
2022-12-29T09:17:12.255Z,95390.34
2022-12-29T09:19:14.970Z,95333.34
2022-12-29T09:21:17.694Z,95328.22
2022-12-29T09:23:20.486Z,95438.53
2022-12-29T09:25:25.259Z,95421.03
2022-12-29T09:27:28.130Z,95451.44
2022-12-29T09:29:30.913Z,95397.09
2022-12-29T09:31:33.654Z,95455.75
2022-12-29T09:33:37.997Z,95411.88
2022-12-29T09:35:43.664Z,95341.94
2022-12-29T09:37:46.428Z,95450.91
2022-12-29T09:39:54.036Z,95429.66
2022-12-29T09:42:04.053Z,95449.00
2022-12-29T09:44:14.861Z,95390.63
2022-12-29T09:46:25.611Z,95400.03
2022-12-29T09:48:32.421Z,95409.19
2022-12-29T09:50:39.260Z,95443.13
2022-12-29T09:52:50.669Z,95423.19
2022-12-29T09:55:02.989Z,95447.41
2022-12-29T09:57:17.026Z,95440.41
2022-12-29T09:59:24.792Z,95415.13
2022-12-29T10:01:32.966Z,95447.94
2022-12-29T10:03:47.630Z,95434.22
2022-12-29T10:05:57.731Z,95432.59
2022-12-29T10:08:17.313Z,95414.03
2022-12-29T10:10:33.206Z,95443.09
2022-12-29T10:12:51.644Z,95411.63
2022-12-29T10:15:05.444Z,95425.88
2022-12-29T10:17:23.011Z,95425.59
2022-12-29T10:19:41.715Z,95437.44
2022-12-29T10:22:01.674Z,95420.47
2022-12-29T10:24:12.934Z,95449.00
2022-12-29T10:26:19.262Z,95428.31
2022-12-29T10:28:24.544Z,95475.69
2022-12-29T10:30:27.656Z,95434.78
2022-12-29T10:32:37.186Z,95427.22
2022-12-29T10:34:45.074Z,95387.13
2022-12-29T10:36:51.274Z,95434.75
2022-12-29T10:39:06.978Z,95444.44
2022-12-29T10:41:15.871Z,95421.31
2022-12-29T10:43:28.234Z,95439.34
2022-12-29T10:45:33.568Z,95373.41
2022-12-29T10:47:40.744Z,95424.25
2022-12-29T10:49:46.728Z,95415.38
2022-12-29T10:51:53.400Z,95442.03
2022-12-29T10:54:00.444Z,95436.09
2022-12-29T10:56:06.039Z,95446.63
2022-12-29T10:58:15.329Z,95446.34
2022-12-29T11:00:21.603Z,95435.31
2022-12-29T11:03:02.697Z,95452.25
2022-12-29T11:05:12.635Z,95452.50
2022-12-29T11:07:22.186Z,95412.41
2022-12-29T11:09:42.191Z,95450.09
2022-12-29T11:11:46.329Z,95443.63
2022-12-29T11:13:51.541Z,95428.56
2022-12-29T11:15:54.331Z,95416.69
2022-12-29T11:18:00.357Z,95439.84
2022-12-29T11:20:28.676Z,95454.38
2022-12-29T11:22:32.937Z,95411.34
2022-12-29T11:24:46.117Z,95451.97
2022-12-29T11:26:50.706Z,95453.31
2022-12-29T11:29:27.077Z,95481.31
2022-12-29T11:31:29.888Z,95442.00
2022-12-29T11:33:33.287Z,95436.09
2022-12-29T11:35:39.681Z,95456.00
2022-12-29T11:37:44.545Z,95463.81
2022-12-29T11:39:54.144Z,95469.19
2022-12-29T11:41:58.789Z,95454.66
2022-12-29T11:44:04.603Z,95463.28
2022-12-29T11:46:08.381Z,95461.66
2022-12-29T11:48:19.943Z,95409.69
2022-12-29T11:50:25.866Z,95462.44
2022-12-29T11:52:34.047Z,95441.22
2022-12-29T11:54:39.912Z,95428.56
2022-12-29T11:56:45.117Z,95456.53
2022-12-29T11:58:50.362Z,95404.31
2022-12-29T12:00:53.867Z,95436.63
2022-12-29T12:03:00.932Z,95454.38
2022-12-29T12:05:11.002Z,95447.94
2022-12-29T12:07:18.782Z,95464.06
2022-12-29T12:09:28.453Z,95461.38
2022-12-29T12:11:38.897Z,95459.22
2022-12-29T12:13:48.907Z,95439.59
2022-12-29T12:15:59.750Z,95440.66
2022-12-29T12:18:07.324Z,95443.09
2022-12-29T12:20:22.948Z,95437.72
2022-12-29T12:22:33.229Z,95438.78
2022-12-29T12:24:42.300Z,95423.19
2022-12-29T12:26:57.845Z,95455.44
2022-12-29T12:29:06.059Z,95438.78
2022-12-29T12:31:18.333Z,95441.47
2022-12-29T12:33:29.889Z,95453.25
2022-12-29T12:35:45.193Z,95440.34
2022-12-29T12:38:10.074Z,95446.00
2022-12-29T12:40:32.358Z,95438.22
2022-12-29T12:42:49.791Z,95426.38
2022-12-29T12:45:02.916Z,95424.50
2022-12-29T12:47:27.910Z,95416.44
2022-12-29T12:50:02.681Z,95427.22
2022-12-29T12:52:13.501Z,95384.69
2022-12-29T12:54:33.357Z,95436.59
2022-12-29T12:56:55.345Z,95413.97
2022-12-29T12:59:09.813Z,95432.00
2022-12-29T13:01:25.829Z,95423.13
2022-12-29T13:03:49.225Z,95423.69
2022-12-29T13:06:11.702Z,95421.03
2022-12-29T13:08:39.390Z,95417.50
2022-12-29T13:10:49.825Z,95399.38
2022-12-29T13:12:59.528Z,95422.94
2022-12-29T13:15:15.782Z,95412.97
2022-12-29T13:17:25.673Z,95418.06
2022-12-29T13:19:34.760Z,95415.16
2022-12-29T13:21:58.754Z,95413.84
2022-12-29T13:24:12.927Z,95417.09
2022-12-29T13:26:22.500Z,95418.72
2022-12-29T13:28:32.214Z,95412.28
2022-12-29T13:30:47.230Z,95413.38
2022-12-29T13:32:58.987Z,95416.38
2022-12-29T13:35:18.898Z,95410.69
2022-12-29T13:37:27.149Z,95399.66
2022-12-29T13:39:34.188Z,95362.00
2022-12-29T13:41:42.748Z,95392.41
2022-12-29T13:43:48.745Z,95396.78
2022-12-29T13:46:02.113Z,95375.78
2022-12-29T13:48:09.094Z,95395.63
2022-12-29T13:50:17.730Z,95386.88
2022-12-29T13:52:26.833Z,95374.94
2022-12-29T13:54:41.873Z,95396.81
2022-12-29T13:56:51.564Z,95394.28
2022-12-29T13:59:00.177Z,95390.75
2022-12-29T14:01:10.095Z,95337.84
2022-12-29T14:03:30.228Z,95365.28
2022-12-29T14:05:34.859Z,95396.72
2022-12-29T14:07:39.731Z,95391.75
2022-12-29T14:09:47.299Z,95334.72
2022-12-29T14:11:50.074Z,95388.34
2022-12-29T14:13:53.712Z,95389.25
2022-12-29T14:15:59.368Z,95397.13
2022-12-29T14:18:07.432Z,95398.22
2022-12-29T14:20:20.566Z,95384.19
2022-12-29T14:22:32.421Z,95396.00
2022-12-29T14:24:46.538Z,95319.09
2022-12-29T14:26:49.320Z,95387.56
2022-12-29T14:28:52.063Z,95397.41
2022-12-29T14:30:56.824Z,95391.84
2022-12-29T14:33:06.137Z,95399.69
2022-12-29T14:35:42.575Z,95390.31
2022-12-29T14:37:45.417Z,95390.88
2022-12-29T14:39:48.218Z,95397.34
2022-12-29T14:42:01.743Z,95397.34
2022-12-29T14:44:18.698Z,95391.69
2022-12-29T14:46:21.537Z,95389.53
2022-12-29T14:48:35.409Z,95384.72
2022-12-29T14:50:42.844Z,95391.44
2022-12-29T14:52:49.622Z,95369.66
2022-12-29T14:54:55.745Z,95412.16
2022-12-29T14:57:01.063Z,95412.97
2022-12-29T14:59:06.459Z,95390.91
2022-12-29T15:01:20.311Z,95408.13
2022-12-29T15:03:26.388Z,95331.72
2022-12-29T15:05:38.645Z,95405.13
2022-12-29T15:07:42.048Z,95405.13
2022-12-29T15:09:50.498Z,95404.63
2022-12-29T15:11:56.062Z,95395.72
2022-12-29T15:13:58.784Z,95407.03
2022-12-29T15:16:01.570Z,95411.59
2022-12-29T15:18:25.598Z,95426.66
2022-12-29T15:20:30.794Z,95409.97
2022-12-29T15:22:35.041Z,95395.72
2022-12-29T15:24:43.671Z,95414.28
2022-12-29T15:26:48.440Z,95412.94
2022-12-29T15:28:53.111Z,95383.81
2022-12-29T15:30:57.782Z,95416.16
2022-12-29T15:33:00.739Z,95415.63
2022-12-29T15:35:24.963Z,95399.47
2022-12-29T15:37:29.325Z,95412.13
2022-12-29T15:39:33.789Z,95412.38
2022-12-29T15:41:59.281Z,95415.59
2022-12-29T15:44:18.714Z,95421.25
2022-12-29T15:46:21.893Z,95413.97
2022-12-29T15:48:26.697Z,95419.88
2022-12-29T15:50:31.255Z,95380.88
2022-12-29T15:52:35.388Z,95427.97
2022-12-29T15:54:40.172Z,95416.63
2022-12-29T15:56:44.080Z,95435.75
2022-12-29T15:58:49.761Z,95434.44
2022-12-29T16:00:55.005Z,95415.25
2022-12-29T16:03:02.124Z,95431.69
2022-12-29T16:05:18.703Z,95248.66
2022-12-29T16:07:29.039Z,95375.44
2022-12-29T16:09:33.477Z,95407.06
2022-12-29T16:11:40.231Z,95434.59
2022-12-29T16:13:43.553Z,95429.53
2022-12-29T16:15:48.086Z,95435.81
2022-12-29T16:17:56.605Z,95401.38
2022-12-29T16:20:02.627Z,95407.56
2022-12-29T16:22:12.507Z,95432.34
2022-12-29T16:24:18.520Z,95437.44
2022-12-29T16:26:23.667Z,95435.50
2022-12-29T16:28:42.762Z,95443.53
2022-12-29T16:30:45.777Z,95435.91
2022-12-29T16:32:49.980Z,95442.41
2022-12-29T16:35:02.559Z,95408.69
2022-12-29T16:37:07.062Z,95450.03
2022-12-29T16:39:34.857Z,95438.41
2022-12-29T16:41:37.675Z,95458.28
2022-12-29T16:43:43.344Z,95435.56
2022-12-29T16:46:21.982Z,95458.41
2022-12-29T16:48:28.354Z,95465.69
2022-12-29T16:50:31.395Z,95416.94
2022-12-29T16:52:36.584Z,95291.41
2022-12-29T16:54:41.014Z,95456.69
2022-12-29T16:56:46.642Z,95455.09
2022-12-29T16:58:57.265Z,95456.75
2022-12-29T17:01:02.076Z,95446.06
2022-12-29T17:03:05.552Z,95456.34
2022-12-29T17:05:14.244Z,95451.25
2022-12-29T17:07:18.886Z,95463.19
2022-12-29T17:09:23.714Z,95463.41
2022-12-29T17:11:51.241Z,95473.44
2022-12-29T17:13:56.743Z,95471.22
2022-12-29T17:15:59.596Z,95442.84
2022-12-29T17:18:02.688Z,95429.97
2022-12-29T17:20:08.305Z,95472.19
2022-12-29T17:22:19.620Z,95485.09
2022-12-29T17:24:22.638Z,95459.25
2022-12-29T17:26:25.389Z,95481.16
2022-12-29T17:28:30.817Z,95482.59
2022-12-29T17:30:36.092Z,95485.31
2022-12-29T17:32:39.316Z,95462.03
2022-12-29T17:34:42.674Z,95443.22
2022-12-29T17:36:45.349Z,95438.44
2022-12-29T17:38:48.580Z,95478.59
2022-12-29T17:40:51.719Z,95426.91
2022-12-29T17:42:57.192Z,95479.88
2022-12-29T17:45:00.775Z,95482.84
2022-12-29T17:47:05.116Z,95457.03
2022-12-29T17:49:13.304Z,95477.19
2022-12-29T17:51:18.113Z,95480.94
2022-12-29T17:53:22.767Z,95427.16
2022-12-29T17:55:31.204Z,95473.19
2022-12-29T17:57:37.708Z,95479.13
2022-12-29T17:59:40.431Z,95476.47
2022-12-29T18:01:45.589Z,95483.72
2022-12-29T18:03:50.072Z,95476.22
2022-12-29T18:05:52.917Z,95472.97
2022-12-29T18:07:58.226Z,95472.47
2022-12-29T18:10:01.148Z,95479.69
2022-12-29T18:12:05.520Z,95489.78
2022-12-29T18:14:13.547Z,95485.81
2022-12-29T18:16:16.989Z,95482.75
2022-12-29T18:18:22.215Z,95488.16
2022-12-29T18:20:26.509Z,95467.16
2022-12-29T18:22:30.148Z,95463.88
2022-12-29T18:24:33.189Z,95467.47
2022-12-29T18:26:37.720Z,95472.88
2022-12-29T18:28:40.649Z,95494.09
2022-12-29T18:30:43.772Z,95465.63
2022-12-29T18:32:46.598Z,95491.44
2022-12-29T18:34:49.955Z,95493.72
2022-12-29T18:36:56.825Z,95489.25
2022-12-29T18:39:02.596Z,95387.16
2022-12-29T18:41:05.657Z,95491.97
2022-12-29T18:43:08.603Z,95471.22
2022-12-29T18:45:21.237Z,95494.97
2022-12-29T18:47:24.484Z,95475.84
2022-12-29T18:49:27.351Z,95494.75
2022-12-29T18:51:33.412Z,95473.22
2022-12-29T18:53:38.118Z,95486.16
2022-12-29T18:55:41.038Z,95502.34
2022-12-29T18:57:44.878Z,95464.59
2022-12-29T18:59:47.821Z,95512.06
2022-12-29T19:01:50.880Z,95443.28
2022-12-29T19:03:53.931Z,95518.53
2022-12-29T19:05:56.817Z,95483.72
2022-12-29T19:07:59.612Z,95492.63
2022-12-29T19:10:03.942Z,95489.91
2022-12-29T19:12:06.994Z,95520.09
2022-12-29T19:14:16.655Z,95519.31
2022-12-29T19:16:21.746Z,95474.47
2022-12-29T19:18:44.116Z,95491.75
2022-12-29T19:20:50.848Z,95517.19
2022-12-29T19:22:53.767Z,95515.97
2022-12-29T19:25:00.222Z,95525.69
2022-12-29T19:27:05.125Z,95505.34
2022-12-29T19:29:10.045Z,95522.25
2022-12-29T19:31:12.833Z,95517.19
2022-12-29T19:33:15.786Z,95529.97
2022-12-29T19:35:18.553Z,95524.75
2022-12-29T19:37:21.339Z,95481.78
2022-12-29T19:39:24.175Z,95532.41
2022-12-29T19:41:27.078Z,95538.25
2022-12-29T19:43:31.202Z,95520.91
2022-12-29T19:45:33.967Z,95533.56
2022-12-29T19:47:37.456Z,95544.28
2022-12-29T19:49:40.430Z,95362.53
2022-12-29T19:51:43.258Z,95480.38
2022-12-29T19:53:47.302Z,95541.59
2022-12-29T19:55:50.268Z,95545.56
2022-12-29T19:57:53.089Z,95517.41
2022-12-29T19:59:57.710Z,95542.13
2022-12-29T20:02:00.648Z,95534.09
2022-12-29T20:04:04.131Z,95552.41
2022-12-29T20:06:07.570Z,95552.56
2022-12-29T20:08:10.353Z,95469.81
2022-12-29T20:10:13.162Z,95561.66
2022-12-29T20:12:16.451Z,95523.63
2022-12-29T20:14:19.224Z,95524.63
2022-12-29T20:16:24.948Z,95555.22
2022-12-29T20:18:29.360Z,95570.28
2022-12-29T20:20:34.658Z,95510.69
2022-12-29T20:22:37.505Z,95548.47
2022-12-29T20:24:46.735Z,95564.94
2022-12-29T20:26:54.580Z,95570.75
2022-12-29T20:28:59.989Z,95543.81
2022-12-29T20:31:06.416Z,95576.88
2022-12-29T20:33:10.657Z,95568.97
2022-12-29T20:35:13.739Z,95582.94
2022-12-29T20:37:17.081Z,95534.22
2022-12-29T20:39:21.360Z,95534.88
2022-12-29T20:41:24.517Z,95532.50
2022-12-29T20:43:27.543Z,95592.84
2022-12-29T20:45:30.564Z,95598.53
2022-12-29T20:47:33.409Z,95540.91
2022-12-29T20:49:37.677Z,95543.94
2022-12-29T20:54:06.048Z,95607.63
2022-12-29T20:56:12.179Z,95616.78
2022-12-29T20:58:23.673Z,95610.28
2022-12-29T21:00:26.832Z,95562.31
2022-12-29T21:02:29.676Z,95623.47
2022-12-29T21:04:57.732Z,95612.66
2022-12-29T21:06:56.854Z,95603.88
2022-12-29T21:09:00.312Z,95632.75
2022-12-29T21:11:03.716Z,95591.91
2022-12-29T21:13:06.607Z,95632.28
2022-12-29T21:15:10.223Z,95549.00
2022-12-29T21:17:12.997Z,95600.03
2022-12-29T21:19:16.433Z,95637.59
2022-12-29T21:21:22.097Z,95651.06
2022-12-29T21:23:26.835Z,95654.09
2022-12-29T21:25:36.797Z,95657.47
2022-12-29T21:27:39.585Z,95664.81
2022-12-29T21:29:42.357Z,95598.41
2022-12-29T21:31:45.860Z,95652.25
2022-12-29T21:33:48.599Z,95655.97
2022-12-29T21:35:51.394Z,95661.44
2022-12-29T21:37:54.547Z,95654.25
2022-12-29T21:39:58.870Z,95633.00
2022-12-29T21:42:02.621Z,95651.69
2022-12-29T21:44:23.452Z,95619.56
2022-12-29T21:46:26.296Z,95662.47
2022-12-29T21:48:30.204Z,95642.72
2022-12-29T21:50:32.946Z,95589.31
2022-12-29T21:52:34.667Z,95669.41
2022-12-29T21:54:55.121Z,95667.78
2022-12-29T21:56:59.515Z,95659.09
2022-12-29T21:59:20.063Z,95652.16
2022-12-29T22:01:41.335Z,95648.31
2022-12-29T22:04:01.592Z,95634.97
2022-12-29T22:06:22.406Z,95655.28
2022-12-29T22:08:42.861Z,95665.84
2022-12-29T22:11:05.473Z,95667.13
2022-12-29T22:13:09.591Z,95673.97
2022-12-29T22:15:12.369Z,95670.94
2022-12-29T22:17:16.900Z,95669.78
2022-12-29T22:19:21.898Z,95676.06
2022-12-29T22:21:24.830Z,95673.16
2022-12-29T22:23:27.619Z,95674.91
2022-12-29T22:25:30.672Z,95671.75
2022-12-29T22:27:33.438Z,95671.66
2022-12-29T22:29:37.558Z,95670.72
2022-12-29T22:31:40.449Z,95681.41
2022-12-29T22:33:46.245Z,95653.19
2022-12-29T22:35:48.998Z,95657.03
2022-12-29T22:37:51.864Z,95677.44
2022-12-29T22:39:54.769Z,95664.69
2022-12-29T22:41:57.503Z,95664.69
2022-12-29T22:44:00.409Z,95674.19
2022-12-29T22:46:05.339Z,95647.03
2022-12-29T22:48:08.638Z,95667.25
2022-12-29T22:50:11.612Z,95680.69
2022-12-29T22:52:14.603Z,95689.75
2022-12-29T22:54:18.162Z,95621.84
2022-12-29T22:56:20.991Z,95688.25
2022-12-29T22:58:23.871Z,95646.34
2022-12-29T23:00:26.614Z,95701.59
2022-12-29T23:02:31.361Z,95706.94
2022-12-29T23:05:02.179Z,95705.66
2022-12-29T23:06:57.277Z,95715.53
2022-12-29T23:09:01.619Z,95712.63
2022-12-29T23:11:05.937Z,95721.22
2022-12-29T23:13:08.664Z,95730.28
2022-12-29T23:15:12.143Z,95709.50
2022-12-29T23:17:15.997Z,95726.22
2022-12-29T23:19:20.045Z,95717.84
2022-12-29T23:21:22.768Z,95633.00
2022-12-29T23:23:46.284Z,95716.69
2022-12-29T23:25:51.461Z,95694.53
2022-12-29T23:27:54.281Z,95718.31
2022-12-29T23:29:57.039Z,95719.25
2022-12-29T23:31:59.892Z,95721.44
2022-12-29T23:34:03.809Z,95683.72
2022-12-29T23:36:09.194Z,95722.72
2022-12-29T23:38:11.906Z,95717.75
2022-12-29T23:40:14.764Z,95627.75
2022-12-29T23:42:17.566Z,95724.47
2022-12-29T23:44:20.345Z,95725.63
2022-12-29T23:46:25.147Z,95711.94
2022-12-29T23:48:28.121Z,95530.06
2022-12-29T23:50:30.924Z,95701.59
2022-12-29T23:52:35.091Z,95710.66
2022-12-29T23:54:37.798Z,95734.69
2022-12-29T23:56:40.593Z,95730.50
2022-12-29T23:58:43.383Z,95717.28
